Craigsville, Virginia
Current Conditions -  °F | °C
As of 12:15 AM on Sunday 26 Oct 2014 (Local Time) from KW13 Reporting Station
Clear Clear  
Wind Chill: 59°   Ceiling: Unl
Heat Index: 59°   Visibility: 10mi
Dew Point: 47°   Wind: 6mph
Humidity: 64%   Direction: 230°SW
Pressure: 29.79"   Gusts: NA
Location:  38.08°N, 79.38°W
Report Text: KW13 260415Z AUTO 23005KT 10SM CLR 15/08 A2979 RMK AO1 T01500082
Loading
Personal Weather Stations






























Interactive Weather Map
Tropical Storm Tracking
New forecast layout! Learn more

10-Day Weather Forecast

Advertisements
Track Severe Weather on mobile